Viking Star — LAIW6 — position and weather

sailwx.info

Track history (hours):
 
Tides and Currents Weather Stations Pressure Air Temp Water Temp Dewpoint Dewpoint Depression Visibility Wind Speed Wind Dir Waves Ship Positions

Viking Star

Last reported at 2020-Jan-28 20:59 UTC. Time now 2020-Jan-28 21:05 UTC.
Position N 69°39' E 018°58'.

Length 228 m; draft 6.6 m.

Type: Passenger vessel. MMSI: 257903000.

Date/timePositionNaut miles runAvg speedWind from/ knotsBaromVisibWave heightAir tempDewpointWater temp
2020-Jan-28 20:59N 69°39' E 018°58'0 0.0
2020-Jan-28 17:59N 69°39' E 018°58'0 0.0
2020-Jan-28 13:59N 69°39' E 018°58'0 0.0
2020-Jan-28 13:29N 69°39' E 018°58'0 0.0
2020-Jan-28 10:59N 69°39' E 018°58'10 1.6
2020-Jan-28 04:30N 69°47' E 019°15'1211.4
2020-Jan-28 03:30N 69°52' E 019°47'4512.9
2020-Jan-28 00:00N 70°20' E 021°29'2713.6
2020-Jan-27 22:01N 70°14' E 022°47'19 4.7
2020-Jan-27 18:00N 69°59' E 023°20'0 0.0
2020-Jan-27 17:00N 69°59' E 023°20'0 0.0
2020-Jan-27 16:30N 69°59' E 023°20'0 0.0
2020-Jan-27 15:30N 69°59' E 023°20'0 0.0
2020-Jan-27 12:30N 69°59' E 023°20'0 0.0
2020-Jan-27 12:00N 69°59' E 023°20'0 0.0
2020-Jan-27 11:27N 69°59' E 023°20'0 0.0
2020-Jan-27 05:57N 69°59' E 023°20'0 0.0
2020-Jan-27 04:00N 69°59' E 023°20'0 0.0
2020-Jan-27 01:30N 69°59' E 023°20'0 0.0
2020-Jan-26 22:30N 69°59' E 023°20'0 0.0
2020-Jan-26 22:00N 69°59' E 023°20'0 0.0
2020-Jan-26 21:30N 69°59' E 023°20'0 0.0
2020-Jan-26 20:00N 69°59' E 023°20'0 0.0
2020-Jan-26 18:27N 69°59' E 023°20'0 0.0
2020-Jan-26 18:00N 69°59' E 023°20'0 0.0
2020-Jan-26 15:30N 69°59' E 023°20'0 0.0
2020-Jan-26 14:30N 69°59' E 023°20'0 0.0
2020-Jan-26 14:00N 69°59' E 023°20'0 0.0
2020-Jan-26 12:00N 69°59' E 023°20'0 0.0
2020-Jan-26 11:30N 69°59' E 023°20'0 0.0
2020-Jan-26 11:00N 69°59' E 023°20'1 0.5
2020-Jan-26 10:00N 69°59' E 023°19'3 6.9
2020-Jan-26 09:30N 70°02' E 023°14'4511.3
2020-Jan-26 05:29N 70°10' E 021°03'5814.6
2020-Jan-26 01:30N 69°34' E 018°49'713.7
2020-Jan-26 01:00N 69°32' E 018°31'3012.1
2020-Jan-25 22:31N 69°08' E 017°40'5313.2
2020-Jan-25 18:30N 68°24' E 016°19'1018.9
2020-Jan-25 17:59N 68°26' E 016°45'1019.3
2020-Jan-25 17:30N 68°26' E 017°10'5 3.6
2020-Jan-25 16:00N 68°26' E 017°25'0 0.0
2020-Jan-25 15:00N 68°26' E 017°25'0 0.0
2020-Jan-25 13:30N 68°26' E 017°25'0 0.0
2020-Jan-25 12:30N 68°26' E 017°25'0 0.0
2020-Jan-25 12:00N 68°26' E 017°25'0 0.0
2020-Jan-25 11:30N 68°26' E 017°25'0 0.0
2020-Jan-25 08:00N 68°26' E 017°25'0 0.0
2020-Jan-25 07:30N 68°26' E 017°25'4511.3
2020-Jan-25 03:30N 68°11' E 015°29'3715.0
2020-Jan-25 01:00N 67°46' E 014°15'917.4
2020-Jan-25 00:30N 67°39' E 014°02'2415.7
2020-Jan-24 23:00N 67°20' E 013°26'3514.1
2020-Jan-24 20:30N 66°45' E 013°13'917.3
2020-Jan-24 20:00N 66°37' E 013°04'612.2
2020-Jan-24 19:31N 66°32' E 012°58'6017.2
2020-Jan-24 16:00N 65°35' E 012°09'1414.2
2020-Jan-24 15:00N 65°21' E 012°03'1817.4
2020-Jan-24 14:00N 65°05' E 011°47'3015.0
2020-Jan-24 12:00N 64°44' E 010°57'1717.3
2020-Jan-24 11:00N 64°32' E 010°26'917.4
2020-Jan-24 10:30N 64°26' E 010°13'918.0
2020-Jan-24 10:00N 64°20' E 009°58'4618.5
2020-Jan-24 07:30N 63°38' E 009°16'713.8
2020-Jan-24 07:00N 63°31' E 009°10'6217.7
2020-Jan-24 03:30N 63°10' E 006°60'1616.2
2020-Jan-24 02:30N 63°05' E 006°26'3216.0
2020-Jan-24 00:30N 62°47' E 005°29'1616.4
2020-Jan-23 23:30N 62°35' E 005°03'2416.2
2020-Jan-23 22:00N 62°14' E 004°36'7313.4
2020-Jan-23 16:30N 61°01' E 004°20'1110.6
2020-Jan-23 15:29N 60°53' E 004°33'2215.0
2020-Jan-23 14:00N 60°33' E 004°56'14 9.4
2020-Jan-23 12:28N 60°24' E 005°19'0 0.0
2020-Jan-23 10:58N 60°24' E 005°19'0 0.0
2020-Jan-23 09:58N 60°24' E 005°19'0 0.0
2020-Jan-23 05:58N 60°24' E 005°19'0 0.0
2020-Jan-23 05:28N 60°24' E 005°19'0 0.0
2020-Jan-22 18:58N 60°24' E 005°19'0 0.0
2020-Jan-22 14:58N 60°24' E 005°19'0 0.0
2020-Jan-22 12:58N 60°24' E 005°19'0 0.0
2020-Jan-22 10:58N 60°24' E 005°19'0 0.0
2020-Jan-22 08:58N 60°24' E 005°19'0 0.0
2020-Jan-22 08:28N 60°24' E 005°19'0 0.0
2020-Jan-22 03:58N 60°24' E 005°19'0 0.0
2020-Jan-22 03:28N 60°24' E 005°19'0 0.0
2020-Jan-21 23:58N 60°24' E 005°19'0 0.0
2020-Jan-21 20:28N 60°24' E 005°19'9412.6
2020-Jan-21 13:00N 61°56' E 004°33'2315.0
2020-Jan-21 11:30N 62°18' E 004°40'1212.3
2020-Jan-21 10:30N 62°28' E 004°55'3010.0
2020-Jan-21 07:30N 62°50' E 005°39'5 9.2
2020-Jan-21 07:00N 62°54' E 005°46'24 8.1
2020-Jan-21 04:00N 63°06' E 006°33'4 7.6
2020-Jan-21 03:30N 63°07' E 006°41'4 7.5
2020-Jan-21 03:00N 63°08' E 006°49'12 7.9
2020-Jan-21 01:30N 63°12' E 007°14'4 8.1
2020-Jan-21 01:00N 63°13' E 007°23'4410.9
2020-Jan-20 21:00N 63°28' E 008°54'2911.5
2020-Jan-20 18:30N 63°54' E 009°22'1912.6
2020-Jan-20 17:00N 64°11' E 009°42'18 8.8
2020-Jan-20 15:00N 64°24' E 010°09'14 9.2
2020-Jan-20 13:30N 64°33' E 010°32'2013.4
2020-Jan-20 12:00N 64°48' E 011°05'1514.6
2020-Jan-20 11:00N 64°59' E 011°25'2516.6
2020-Jan-20 09:30N 65°20' E 012°01'714.2
2020-Jan-20 09:00N 65°26' E 011°56'3417.0
2020-Jan-20 06:59N 65°58' E 012°26'1616.7
2020-Jan-20 06:00N 66°11' E 012°51'918.1
2020-Jan-20 05:30N 66°20' E 012°57'918.0
2020-Jan-20 05:00N 66°29' E 012°60'2416.0
2020-Jan-20 03:30N 66°52' E 013°20'1514.6
2020-Jan-20 02:30N 67°01' E 013°48'1616.2
2020-Jan-20 01:30N 67°15' E 014°10'917.7
2020-Jan-20 01:00N 67°22' E 014°24'2516.5
2020-Jan-19 23:30N 67°47' E 014°17'4216.9
2020-Jan-19 21:00N 68°15' E 015°42'3718.4
2020-Jan-19 19:00N 68°26' E 017°16'3 6.3
2020-Jan-19 18:29N 68°26' E 017°25'0 0.0
2020-Jan-19 16:29N 68°26' E 017°25'0 0.0
2020-Jan-19 12:59N 68°26' E 017°25'0 0.0
2020-Jan-19 10:59N 68°26' E 017°25'0 0.0
2020-Jan-19 10:29N 68°26' E 017°25'0 0.0
2020-Jan-19 09:59N 68°26' E 017°25'0 0.0
2020-Jan-19 08:29N 68°26' E 017°25'1 0.5
2020-Jan-19 06:30N 68°26' E 017°22'2110.7
2020-Jan-19 04:30N 68°25' E 016°25'8 8.2
2020-Jan-19 03:30N 68°25' E 016°02'2811.1
2020-Jan-19 01:00N 68°47' E 016°48'815.2
2020-Jan-19 00:30N 68°54' E 016°59'3212.9
2020-Jan-18 22:00N 69°18' E 017°58'611.5
2020-Jan-18 21:30N 69°23' E 018°06'  
Track history (hours):
 
Tides and Currents Weather Stations Pressure Air Temp Water Temp Dewpoint Dewpoint Depression Visibility Wind Speed Wind Dir Waves Ship Positions

Viking Star

Last reported at 2020-Jan-28 20:59 UTC. Time now 2020-Jan-28 21:05 UTC.
Position N 69°39' E 018°58'.

Length 228 m; draft 6.6 m.

Type: Passenger vessel. MMSI: 257903000.

Date/timePositionNaut miles runAvg speedWind from/ knotsBaromVisibWave heightAir tempDewpointWater temp
2020-Jan-28 20:59N 69°39' E 018°58'0 0.0
2020-Jan-28 17:59N 69°39' E 018°58'0 0.0
2020-Jan-28 13:59N 69°39' E 018°58'0 0.0
2020-Jan-28 13:29N 69°39' E 018°58'0 0.0
2020-Jan-28 10:59N 69°39' E 018°58'10 1.6
2020-Jan-28 04:30N 69°47' E 019°15'1211.4
2020-Jan-28 03:30N 69°52' E 019°47'4512.9
2020-Jan-28 00:00N 70°20' E 021°29'2713.6
2020-Jan-27 22:01N 70°14' E 022°47'19 4.7
2020-Jan-27 18:00N 69°59' E 023°20'0 0.0
2020-Jan-27 17:00N 69°59' E 023°20'0 0.0
2020-Jan-27 16:30N 69°59' E 023°20'0 0.0
2020-Jan-27 15:30N 69°59' E 023°20'0 0.0
2020-Jan-27 12:30N 69°59' E 023°20'0 0.0
2020-Jan-27 12:00N 69°59' E 023°20'0 0.0
2020-Jan-27 11:27N 69°59' E 023°20'0 0.0
2020-Jan-27 05:57N 69°59' E 023°20'0 0.0
2020-Jan-27 04:00N 69°59' E 023°20'0 0.0
2020-Jan-27 01:30N 69°59' E 023°20'0 0.0
2020-Jan-26 22:30N 69°59' E 023°20'0 0.0
2020-Jan-26 22:00N 69°59' E 023°20'0 0.0
2020-Jan-26 21:30N 69°59' E 023°20'0 0.0
2020-Jan-26 20:00N 69°59' E 023°20'0 0.0
2020-Jan-26 18:27N 69°59' E 023°20'0 0.0
2020-Jan-26 18:00N 69°59' E 023°20'0 0.0
2020-Jan-26 15:30N 69°59' E 023°20'0 0.0
2020-Jan-26 14:30N 69°59' E 023°20'0 0.0
2020-Jan-26 14:00N 69°59' E 023°20'0 0.0
2020-Jan-26 12:00N 69°59' E 023°20'0 0.0
2020-Jan-26 11:30N 69°59' E 023°20'0 0.0
2020-Jan-26 11:00N 69°59' E 023°20'1 0.5
2020-Jan-26 10:00N 69°59' E 023°19'3 6.9
2020-Jan-26 09:30N 70°02' E 023°14'4511.3
2020-Jan-26 05:29N 70°10' E 021°03'5814.6
2020-Jan-26 01:30N 69°34' E 018°49'713.7
2020-Jan-26 01:00N 69°32' E 018°31'3012.1
2020-Jan-25 22:31N 69°08' E 017°40'5313.2
2020-Jan-25 18:30N 68°24' E 016°19'1018.9
2020-Jan-25 17:59N 68°26' E 016°45'1019.3
2020-Jan-25 17:30N 68°26' E 017°10'5 3.6
2020-Jan-25 16:00N 68°26' E 017°25'0 0.0
2020-Jan-25 15:00N 68°26' E 017°25'0 0.0
2020-Jan-25 13:30N 68°26' E 017°25'0 0.0
2020-Jan-25 12:30N 68°26' E 017°25'0 0.0
2020-Jan-25 12:00N 68°26' E 017°25'0 0.0
2020-Jan-25 11:30N 68°26' E 017°25'0 0.0
2020-Jan-25 08:00N 68°26' E 017°25'0 0.0
2020-Jan-25 07:30N 68°26' E 017°25'4511.3
2020-Jan-25 03:30N 68°11' E 015°29'3715.0
2020-Jan-25 01:00N 67°46' E 014°15'917.4
2020-Jan-25 00:30N 67°39' E 014°02'2415.7
2020-Jan-24 23:00N 67°20' E 013°26'3514.1
2020-Jan-24 20:30N 66°45' E 013°13'917.3
2020-Jan-24 20:00N 66°37' E 013°04'612.2
2020-Jan-24 19:31N 66°32' E 012°58'6017.2
2020-Jan-24 16:00N 65°35' E 012°09'1414.2
2020-Jan-24 15:00N 65°21' E 012°03'1817.4
2020-Jan-24 14:00N 65°05' E 011°47'3015.0
2020-Jan-24 12:00N 64°44' E 010°57'1717.3
2020-Jan-24 11:00N 64°32' E 010°26'917.4
2020-Jan-24 10:30N 64°26' E 010°13'918.0
2020-Jan-24 10:00N 64°20' E 009°58'4618.5
2020-Jan-24 07:30N 63°38' E 009°16'713.8
2020-Jan-24 07:00N 63°31' E 009°10'6217.7
2020-Jan-24 03:30N 63°10' E 006°60'1616.2
2020-Jan-24 02:30N 63°05' E 006°26'3216.0
2020-Jan-24 00:30N 62°47' E 005°29'1616.4
2020-Jan-23 23:30N 62°35' E 005°03'2416.2
2020-Jan-23 22:00N 62°14' E 004°36'7313.4
2020-Jan-23 16:30N 61°01' E 004°20'1110.6
2020-Jan-23 15:29N 60°53' E 004°33'2215.0
2020-Jan-23 14:00N 60°33' E 004°56'14 9.4
2020-Jan-23 12:28N 60°24' E 005°19'0 0.0
2020-Jan-23 10:58N 60°24' E 005°19'0 0.0
2020-Jan-23 09:58N 60°24' E 005°19'0 0.0
2020-Jan-23 05:58N 60°24' E 005°19'0 0.0
2020-Jan-23 05:28N 60°24' E 005°19'0 0.0
2020-Jan-22 18:58N 60°24' E 005°19'0 0.0
2020-Jan-22 14:58N 60°24' E 005°19'0 0.0
2020-Jan-22 12:58N 60°24' E 005°19'0 0.0
2020-Jan-22 10:58N 60°24' E 005°19'0 0.0
2020-Jan-22 08:58N 60°24' E 005°19'0 0.0
2020-Jan-22 08:28N 60°24' E 005°19'0 0.0
2020-Jan-22 03:58N 60°24' E 005°19'0 0.0
2020-Jan-22 03:28N 60°24' E 005°19'0 0.0
2020-Jan-21 23:58N 60°24' E 005°19'0 0.0
2020-Jan-21 20:28N 60°24' E 005°19'9412.6
2020-Jan-21 13:00N 61°56' E 004°33'2315.0
2020-Jan-21 11:30N 62°18' E 004°40'1212.3
2020-Jan-21 10:30N 62°28' E 004°55'3010.0
2020-Jan-21 07:30N 62°50' E 005°39'5 9.2
2020-Jan-21 07:00N 62°54' E 005°46'24 8.1
2020-Jan-21 04:00N 63°06' E 006°33'4 7.6
2020-Jan-21 03:30N 63°07' E 006°41'4 7.5
2020-Jan-21 03:00N 63°08' E 006°49'12 7.9
2020-Jan-21 01:30N 63°12' E 007°14'4 8.1
2020-Jan-21 01:00N 63°13' E 007°23'4410.9
2020-Jan-20 21:00N 63°28' E 008°54'2911.5
2020-Jan-20 18:30N 63°54' E 009°22'1912.6
2020-Jan-20 17:00N 64°11' E 009°42'18 8.8
2020-Jan-20 15:00N 64°24' E 010°09'14 9.2
2020-Jan-20 13:30N 64°33' E 010°32'2013.4
2020-Jan-20 12:00N 64°48' E 011°05'1514.6
2020-Jan-20 11:00N 64°59' E 011°25'2516.6
2020-Jan-20 09:30N 65°20' E 012°01'714.2
2020-Jan-20 09:00N 65°26' E 011°56'3417.0
2020-Jan-20 06:59N 65°58' E 012°26'1616.7
2020-Jan-20 06:00N 66°11' E 012°51'918.1
2020-Jan-20 05:30N 66°20' E 012°57'918.0
2020-Jan-20 05:00N 66°29' E 012°60'2416.0
2020-Jan-20 03:30N 66°52' E 013°20'1514.6
2020-Jan-20 02:30N 67°01' E 013°48'1616.2
2020-Jan-20 01:30N 67°15' E 014°10'917.7
2020-Jan-20 01:00N 67°22' E 014°24'2516.5
2020-Jan-19 23:30N 67°47' E 014°17'4216.9
2020-Jan-19 21:00N 68°15' E 015°42'3718.4
2020-Jan-19 19:00N 68°26' E 017°16'3 6.3
2020-Jan-19 18:29N 68°26' E 017°25'0 0.0
2020-Jan-19 16:29N 68°26' E 017°25'0 0.0
2020-Jan-19 12:59N 68°26' E 017°25'0 0.0
2020-Jan-19 10:59N 68°26' E 017°25'0 0.0
2020-Jan-19 10:29N 68°26' E 017°25'0 0.0
2020-Jan-19 09:59N 68°26' E 017°25'0 0.0
2020-Jan-19 08:29N 68°26' E 017°25'1 0.5
2020-Jan-19 06:30N 68°26' E 017°22'2110.7
2020-Jan-19 04:30N 68°25' E 016°25'8 8.2
2020-Jan-19 03:30N 68°25' E 016°02'2811.1
2020-Jan-19 01:00N 68°47' E 016°48'815.2
2020-Jan-19 00:30N 68°54' E 016°59'3212.9
2020-Jan-18 22:00N 69°18' E 017°58'611.5
2020-Jan-18 21:30N 69°23' E 018°06'  

Dump ship's entire track history